17.2°F
Current conditions from King Hill
Updated every 5 minutes
 
  Wednesday December 13, 2017

Observations for Westford

Westford

44° 37' 39"N, 73° 02' 29"W, Elevation 850 ft.
Eastern Time

Hourly observations for the last 72 hours

Date Time Temperature (°F) Humi-
dity

(%)
Wind
(mph)
Pressure Rain (in)
Air Dew 6 Hour 1 Hr 3 Hr 6 Hr Day
Alt
(in)
Sea
Level

(mb)
Max Min
13 03:00 17.1 14.9 91 Calm 29.31 992.7 0.00
13 02:00 17.2 15.0 91 Calm 29.31 992.4 0.00
13 01:00 17.7 15.5 30.8 17.7 91 Calm 29.34 993.7 0.00
13 00:00 17.8 15.6 91 Calm 29.35 993.8 0.00
12 23:00 18.2 16.3 92 Calm 29.39 995.2 0.00
12 22:00 19.4 17.5 92 Calm 29.39 995.2 0.00
12 21:00 20.7 19.0 93 NW 0 G 7 29.38 995.1 0.00
12 20:00 22.9 21.2 93 NW 5 G 22 29.37 994.8 0.00
12 19:00 30.5 29.0 31.1 30.2 94 Calm 29.36 994.1 0.00
12 18:00 30.2 28.7 94 Calm 29.37 994.7 0.00
12 17:00 30.6 28.8 93 Calm 29.38 995.0 0.00
12 16:00 30.7 28.7 92 S 0 G 4 29.40 995.5 0.00
12 15:00 31.0 27.6 87 S 1 G 11 29.41 996.1 0.00
12 14:00 30.9 27.5 87 S 0 G 8 29.43 996.6 0.00
12 13:00 31.0 27.3 31.0 25.4 86 SSW 3 G 11 29.45 997.4 0.00
12 12:00 29.4 26.6 89 SW 0 G 11 29.49 998.7 0.00
12 11:00 29.4 26.3 88 S 2 G 13 29.54 1000.3 0.00
12 10:00 28.2 25.1 88 S 4 G 12 29.59 1002.0 0.00
12 09:00 26.6 24.3 91 S 4 G 14 29.62 1002.9 0.00
12 08:00 25.7 23.4 91 SSE 2 G 15 29.63 1003.6 0.00
12 07:00 25.5 22.2 25.6 12.9 87 S 2 G 13 29.67 1004.8 0.00
12 06:00 24.4 20.5 85 SW 1 G 12 29.71 1006.1 0.00
12 05:00 20.1 17.6 90 S 0 G 5 29.74 1007.2 0.00
12 04:00 15.4 12.7 89 Calm 29.79 1008.8 0.00
12 03:00 14.6 11.7 88 Calm 29.83 1010.0 0.00
12 02:00 14.4 10.7 85 Calm 29.87 1011.5 0.00
12 01:00 13.6 9.7 13.6 8.7 84 ENE 0 G 1 29.90 1012.4 0.00
12 00:00 13.0 9.6 86 Calm 29.93 1013.5 0.00
11 23:00 11.5 8.1 86 Calm 29.94 1014.1 0.00
11 22:00 11.4 8.0 86 Calm 29.95 1014.4 0.00
11 21:00 8.9 5.6 86 Calm 29.95 1014.4 0.00
11 20:00 10.7 6.3 82 Calm 29.98 1015.2 0.00
11 19:00 10.8 7.2 18.1 8.5 85 Calm 30.00 1015.8 0.00
11 18:00 9.7 6.9 88 Calm 30.01 1016.4 0.00
11 17:00 9.6 5.2 82 Calm 30.00 1016.1 0.00
11 16:00 13.8 7.6 76 Calm 30.00 1016.0 0.00
11 15:00 15.8 9.0 74 NNE 1 G 4 29.98 1015.4 0.00
11 14:00 17.6 10.4 73 NNE 1 G 4 29.98 1015.3 0.00
11 13:00 17.5 11.5 18.3 15.4 77 NNE 0 G 7 29.97 1015.0 0.00
11 12:00 18.0 12.3 78 N 1 G 5 29.98 1015.1 0.00
11 11:00 15.8 11.6 83 E 0 G 5 29.98 1015.3 0.00
11 10:00 16.1 12.4 85 NE 0 G 7 29.97 1014.8 0.00
11 09:00 15.6 12.7 88 N 0 G 4 29.94 1014.0 0.00
11 08:00 16.3 13.6 89 NNE 0 G 2 29.92 1013.2 0.00
11 07:00 17.6 15.2 26.1 17.6 90 Calm 29.89 1012.2 0.00
11 06:00 19.5 17.0 90 NNW 0 G 5 29.86 1011.3 0.00
11 05:00 22.5 20.5 92 NW 6 G 14 29.84 1010.4 0.00
11 04:00 25.6 23.9 93 WSW 0 G 4 29.82 1009.8 0.00
11 03:00 25.6 23.6 92 Calm 29.81 1009.3 0.00
11 02:00 25.9 23.6 91 SSW 1 G 8 29.80 1009.3 0.00
11 01:00 26.0 23.5 27.1 25.6 90 SSW 1 G 7 29.80 1009.3 0.00
11 00:00 25.8 23.0 89 SSW 2 G 10 29.80 1009.2 0.01
10 23:00 25.9 22.8 88 SSW 4 G 11 29.80 1009.1 0.01
10 22:00 26.1 22.2 85 SSW 1 G 11 29.79 1008.7 0.01
10 21:00 26.7 20.2 76 SW 1 G 6 29.79 1008.7 0.01
10 20:00 27.1 17.9 68 SW 0 G 6 29.78 1008.7 0.01
10 19:00 26.5 18.0 29.9 25.9 70 SW 1 G 5 29.78 1008.7 0.01
10 18:00 25.9 18.4 73 SW 0 G 1 29.78 1008.6 0.01
10 17:00 26.2 17.1 68 WSW 0 G 1 29.77 1008.1 0.01
10 16:00 27.1 16.9 65 W 6 G 16 29.76 1007.9 0.01
10 15:00 28.0 17.4 64 W 7 G 16 29.74 1007.0 0.01
10 14:00 29.4 18.0 62 SSW 1 G 6 29.71 1006.1 0.01
10 13:00 28.6 19.4 30.4 24.5 68 WNW 4 G 22 29.70 1005.7 0.01 0.01 0.01
10 12:00 30.1 21.8 71 W 5 G 23 29.68 1005.0 0.01 0.01
10 11:00 28.2 25.1 88 SW 1 G 9 29.67 1004.8 0.00
10 10:00 26.4 24.4 92 SSW 6 G 13 29.67 1004.7 0.00
10 09:00 26.2 24.7 94 SW 2 G 10 29.66 1004.5 0.00
10 08:00 25.8 24.3 94 SW 1 G 8 29.65 1004.1 0.00
10 07:00 24.9 23.2 25.6 22.2 93 SSW 0 G 5 29.64 1003.9 0.00
10 06:00 25.4 23.7 93 Calm 29.65 1004.0 0.00
10 05:00 25.4 23.7 93 WNW 0 G 4 29.64 1003.6 0.00
10 04:00 25.5 23.8 93 Calm 29.63 1003.5 0.00

Data generated by WxSolution Version 1.9.0.6, Build 2017.01.14.


 
 
Current Radar Loop:

Copyright © WestfordWeather.net 2007-2017. All rights reserved.